createdAt,value
2023-05-19T00:02:26.266Z,101045.24
2023-05-19T00:04:58.189Z,101045.33
2023-05-19T00:07:32.500Z,101042.30
2023-05-19T00:10:04.057Z,101038.03
2023-05-19T00:12:36.091Z,101036.66
2023-05-19T00:15:14.569Z,101037.11
2023-05-19T00:17:55.387Z,101035.45
2023-05-19T00:20:26.125Z,101038.02
2023-05-19T00:23:07.796Z,101037.11
2023-05-19T00:25:40.691Z,101040.02
2023-05-19T00:28:22.423Z,101038.17
2023-05-19T00:30:56.677Z,101037.39
2023-05-19T00:33:47.379Z,101039.88
2023-05-19T00:36:23.485Z,101038.09
2023-05-19T00:39:07.619Z,101037.74
2023-05-19T00:41:39.122Z,101041.27
2023-05-19T00:44:29.023Z,101036.83
2023-05-19T00:47:02.261Z,101038.21
2023-05-19T00:49:43.286Z,101037.36
2023-05-19T00:52:16.998Z,101037.11
2023-05-19T00:54:50.032Z,101035.14
2023-05-19T00:57:33.493Z,101029.37
2023-05-19T01:00:09.652Z,101029.96
2023-05-19T01:02:40.716Z,101029.81
2023-05-19T01:05:12.525Z,101028.98
2023-05-19T01:07:47.166Z,101023.92
2023-05-19T01:10:26.782Z,101024.51
2023-05-19T01:13:03.203Z,101020.89
2023-05-19T01:15:40.754Z,101021.64
2023-05-19T01:18:27.268Z,101023.07
2023-05-19T01:21:23.554Z,101018.73
2023-05-19T01:24:03.811Z,101013.90
2023-05-19T01:27:17.968Z,101009.85
2023-05-19T01:33:04.723Z,101008.22
2023-05-19T01:35:47.049Z,101005.55
2023-05-19T01:38:41.124Z,101010.32
2023-05-19T01:41:19.917Z,101009.70
2023-05-19T01:44:10.942Z,101008.93
2023-05-19T01:46:42.660Z,101013.10
2023-05-19T01:49:14.776Z,101012.06
2023-05-19T01:51:48.484Z,101009.11
2023-05-19T01:54:30.500Z,101012.88
2023-05-19T01:57:33.336Z,101012.85
2023-05-19T02:00:24.374Z,101013.70
2023-05-19T02:03:11.316Z,101016.13
2023-05-19T02:05:59.462Z,101014.27
2023-05-19T02:08:45.466Z,101013.08
2023-05-19T02:11:24.249Z,101020.48
2023-05-19T02:14:21.530Z,101019.09
2023-05-19T02:17:14.176Z,101019.63
2023-05-19T02:19:48.363Z,101021.76
2023-05-19T02:22:30.094Z,101023.08
2023-05-19T02:25:03.386Z,101023.02
2023-05-19T02:27:45.013Z,101021.16
2023-05-19T02:30:25.866Z,101020.95
2023-05-19T02:33:16.544Z,101021.00
2023-05-19T02:35:47.501Z,101022.12
2023-05-19T02:38:38.223Z,101021.23
2023-05-19T02:41:22.307Z,101026.06
2023-05-19T02:44:01.988Z,101024.02
2023-05-19T02:46:52.781Z,101020.06
2023-05-19T02:49:23.343Z,101019.45
2023-05-19T02:52:14.141Z,101019.80
2023-05-19T02:54:47.357Z,101020.19
2023-05-19T02:57:28.146Z,101020.75
2023-05-19T03:00:13.149Z,101017.45
2023-05-19T03:02:47.020Z,101018.70
2023-05-19T03:05:18.484Z,101013.95
2023-05-19T03:07:52.360Z,101017.11
2023-05-19T03:10:23.021Z,101019.40
2023-05-19T03:13:13.629Z,101017.99
2023-05-19T03:15:45.155Z,101019.02
2023-05-19T03:18:36.056Z,101013.16
2023-05-19T03:21:19.185Z,101016.11
2023-05-19T03:24:10.186Z,101017.73
2023-05-19T03:27:00.871Z,101015.00
2023-05-19T03:29:52.812Z,101017.55
2023-05-19T03:32:43.880Z,101014.69
2023-05-19T03:35:34.708Z,101014.26
2023-05-19T03:38:05.373Z,101012.92
2023-05-19T03:40:46.083Z,101012.61
2023-05-19T03:43:36.849Z,101017.15
2023-05-19T03:46:27.694Z,101017.61
2023-05-19T03:49:24.333Z,101013.30
2023-05-19T03:52:13.573Z,101021.04
2023-05-19T03:54:58.743Z,101021.58
2023-05-19T03:57:49.721Z,101025.91
2023-05-19T04:00:20.882Z,101028.31
2023-05-19T04:03:11.748Z,101029.77
2023-05-19T04:05:44.518Z,101031.67
2023-05-19T04:08:18.564Z,101031.64
2023-05-19T04:10:52.630Z,101031.27
2023-05-19T04:13:33.625Z,101031.47
2023-05-19T04:16:09.958Z,101027.17
2023-05-19T04:19:00.802Z,101026.00
2023-05-19T04:21:51.509Z,101028.10
2023-05-19T04:24:22.035Z,101033.45
2023-05-19T04:26:56.271Z,101035.11
2023-05-19T04:29:40.925Z,101036.80
2023-05-19T04:32:31.710Z,101041.64
2023-05-19T04:35:03.306Z,101042.23
2023-05-19T04:37:40.614Z,101042.33
2023-05-19T04:40:13.491Z,101048.41
2023-05-19T04:42:49.920Z,101047.80
2023-05-19T04:45:42.720Z,101050.68
2023-05-19T04:48:33.599Z,101050.59
2023-05-19T04:51:29.799Z,101055.27
2023-05-19T04:54:19.746Z,101053.59
2023-05-19T04:56:54.674Z,101050.70
2023-05-19T04:59:46.359Z,101050.61
2023-05-19T05:02:28.813Z,101052.14
2023-05-19T05:05:19.742Z,101052.02
2023-05-19T05:08:11.219Z,101053.60
2023-05-19T05:10:44.752Z,101057.80
2023-05-19T05:13:36.474Z,101060.48
2023-05-19T05:16:29.798Z,101057.84
2023-05-19T05:19:22.340Z,101060.64
2023-05-19T05:21:58.680Z,101056.61
2023-05-19T05:24:48.361Z,101057.08
2023-05-19T05:27:24.296Z,101056.23
2023-05-19T05:29:59.264Z,101058.09
2023-05-19T05:32:32.514Z,101059.91
2023-05-19T05:35:15.187Z,101057.38
2023-05-19T05:37:56.926Z,101060.44
2023-05-19T05:40:30.318Z,101060.57
2023-05-19T05:43:03.523Z,101058.55
2023-05-19T05:45:39.328Z,101056.92
2023-05-19T05:48:13.649Z,101054.69
2023-05-19T05:51:00.224Z,101051.59
2023-05-19T05:53:41.792Z,101052.95
2023-05-19T05:56:17.507Z,101050.48
2023-05-19T05:58:54.078Z,101053.59
2023-05-19T06:01:44.762Z,101052.39
2023-05-19T06:04:18.779Z,101050.41
2023-05-19T06:06:49.535Z,101052.23
2023-05-19T06:09:40.189Z,101046.88
2023-05-19T06:12:12.149Z,101044.29
2023-05-19T06:14:46.922Z,101045.45
2023-05-19T06:17:49.209Z,101045.24
2023-05-19T06:20:23.040Z,101044.95
2023-05-19T06:22:54.141Z,101044.45
2023-05-19T06:25:28.083Z,101037.59
2023-05-19T06:28:09.026Z,101040.39
2023-05-19T06:31:00.177Z,101036.35
2023-05-19T06:33:51.080Z,101039.56
2023-05-19T06:36:24.513Z,101036.66
2023-05-19T06:38:55.609Z,101035.98
2023-05-19T06:41:26.496Z,101037.34
2023-05-19T06:43:56.918Z,101037.69
2023-05-19T06:46:27.555Z,101044.48
2023-05-19T06:48:58.242Z,101043.08
2023-05-19T06:51:41.406Z,101040.63
2023-05-19T06:54:32.078Z,101038.41
2023-05-19T06:57:02.826Z,101035.34
2023-05-19T06:59:33.438Z,101037.66
2023-05-19T07:02:04.883Z,101033.05
2023-05-19T07:04:37.215Z,101036.44
2023-05-19T07:07:18.989Z,101034.90
2023-05-19T07:10:11.114Z,101029.94
2023-05-19T07:13:02.004Z,101030.55
2023-05-19T07:15:45.862Z,101024.25
2023-05-19T07:18:16.477Z,101020.88
2023-05-19T07:20:50.339Z,101014.98
2023-05-19T07:23:21.041Z,101010.15
2023-05-19T07:25:54.901Z,101011.71
2023-05-19T07:28:28.683Z,101009.17
2023-05-19T07:30:59.198Z,101005.55
2023-05-19T07:33:51.118Z,100993.78
2023-05-19T07:36:25.925Z,100990.94
2023-05-19T07:38:56.499Z,100995.46
2023-05-19T07:41:30.044Z,100993.20
2023-05-19T07:44:00.650Z,100992.11
2023-05-19T07:46:31.201Z,100989.42
2023-05-19T07:49:04.222Z,100985.79
2023-05-19T07:51:46.269Z,100989.18
2023-05-19T07:54:16.719Z,100984.21
2023-05-19T07:56:48.178Z,100987.27
2023-05-19T07:59:18.805Z,100980.63
2023-05-19T08:01:52.228Z,100980.23
2023-05-19T08:04:23.091Z,100977.95
2023-05-19T08:06:56.162Z,100977.00
2023-05-19T08:09:26.706Z,100976.84
2023-05-19T08:11:57.905Z,100974.08
2023-05-19T08:14:37.482Z,100972.48
2023-05-19T08:17:07.968Z,100973.85
2023-05-19T08:19:40.934Z,100967.84
2023-05-19T08:22:11.616Z,100972.17
2023-05-19T08:24:43.189Z,100974.19
2023-05-19T08:27:13.828Z,100972.11
2023-05-19T08:29:44.519Z,100973.92
2023-05-19T08:32:15.191Z,100970.70
2023-05-19T08:34:45.745Z,100968.64
2023-05-19T08:37:18.726Z,100971.36
2023-05-19T08:39:49.437Z,100964.83
2023-05-19T08:42:20.014Z,100962.27
2023-05-19T08:44:50.560Z,100958.48
2023-05-19T08:47:22.817Z,100955.05
2023-05-19T08:49:58.687Z,100955.09
2023-05-19T08:52:36.383Z,100952.84
2023-05-19T08:55:17.176Z,100946.63
2023-05-19T08:57:47.785Z,100945.10
2023-05-19T09:00:19.917Z,100943.93
2023-05-19T09:03:01.046Z,100936.67
2023-05-19T09:05:42.364Z,100927.90
2023-05-19T09:08:12.922Z,100926.10
2023-05-19T09:10:43.498Z,100926.52
2023-05-19T09:13:14.010Z,100930.13
2023-05-19T09:15:45.581Z,100935.07
2023-05-19T09:18:16.632Z,100934.14
2023-05-19T09:20:47.689Z,100934.68
2023-05-19T09:23:19.051Z,100932.58
2023-05-19T09:25:54.017Z,100931.02
2023-05-19T09:28:29.534Z,100928.66
2023-05-19T09:31:04.167Z,100924.48
2023-05-19T09:33:36.795Z,100923.09
2023-05-19T09:36:08.868Z,100918.80
2023-05-19T09:38:40.369Z,100909.80
2023-05-19T09:41:11.634Z,100910.10
2023-05-19T09:43:42.174Z,100910.84
2023-05-19T09:46:14.629Z,100908.34
2023-05-19T09:48:45.382Z,100911.70
2023-05-19T09:51:16.066Z,100910.55
2023-05-19T09:53:49.315Z,100907.44
2023-05-19T09:56:23.801Z,100905.27
2023-05-19T09:58:54.556Z,100902.40
2023-05-19T10:01:25.981Z,100896.63
2023-05-19T10:03:57.010Z,100893.42
2023-05-19T10:06:27.958Z,100898.55
2023-05-19T10:08:57.703Z,100895.46
2023-05-19T10:11:28.889Z,100886.20
2023-05-19T10:13:59.420Z,100879.33
2023-05-19T10:16:31.398Z,100879.03
2023-05-19T10:19:03.323Z,100876.22
2023-05-19T10:21:33.873Z,100877.16
2023-05-19T10:24:04.437Z,100875.84
2023-05-19T10:26:35.290Z,100879.73
2023-05-19T10:29:04.901Z,100872.66
2023-05-19T10:31:37.454Z,100865.38
2023-05-19T10:34:28.352Z,100859.48
2023-05-19T10:37:09.287Z,100856.46
2023-05-19T10:39:42.610Z,100857.25
2023-05-19T10:42:18.252Z,100846.85
2023-05-19T10:45:03.802Z,100846.66
2023-05-19T10:47:35.054Z,100846.33
2023-05-19T10:50:09.502Z,100849.16
2023-05-19T10:52:41.442Z,100853.14
2023-05-19T10:55:15.594Z,100858.10
2023-05-19T10:57:57.604Z,100864.16
2023-05-19T11:00:32.459Z,100857.22
2023-05-19T11:03:16.551Z,100854.88
2023-05-19T11:05:50.092Z,100847.59
2023-05-19T11:08:36.412Z,100847.75
2023-05-19T11:11:17.802Z,100849.02
2023-05-19T11:13:55.114Z,100841.58
2023-05-19T11:16:33.280Z,100840.36
2023-05-19T11:19:03.999Z,100838.42
2023-05-19T11:21:46.814Z,100828.44
2023-05-19T11:24:36.202Z,100832.51
2023-05-19T11:27:26.050Z,100832.56
2023-05-19T11:29:59.291Z,100826.86
2023-05-19T11:32:31.607Z,100827.14
2023-05-19T11:35:03.413Z,100822.00
2023-05-19T11:37:35.958Z,100819.33
2023-05-19T11:40:08.775Z,100820.51
2023-05-19T11:42:39.284Z,100821.98
2023-05-19T11:45:12.904Z,100823.41
2023-05-19T11:48:00.893Z,100816.54
2023-05-19T11:50:33.588Z,100815.73
2023-05-19T11:53:04.119Z,100815.27
2023-05-19T11:55:33.580Z,100811.80
2023-05-19T11:58:05.987Z,100809.83
2023-05-19T12:00:46.049Z,100806.73
2023-05-19T12:03:17.524Z,100810.02
2023-05-19T12:05:50.702Z,100806.48
2023-05-19T12:08:21.517Z,100801.85
2023-05-19T12:10:53.993Z,100802.28
2023-05-19T12:13:24.511Z,100812.34
2023-05-19T12:15:56.106Z,100806.92
2023-05-19T12:18:32.685Z,100808.15
2023-05-19T12:21:03.255Z,100816.77
2023-05-19T12:23:34.432Z,100812.63
2023-05-19T12:26:05.252Z,100812.63
2023-05-19T12:28:36.349Z,100814.41
2023-05-19T12:31:07.039Z,100809.06
2023-05-19T12:33:37.404Z,100803.73
2023-05-19T12:36:10.662Z,100806.70
2023-05-19T12:38:42.452Z,100808.79
2023-05-19T12:41:15.104Z,100808.67
2023-05-19T12:43:45.611Z,100803.54
2023-05-19T12:46:17.386Z,100798.53
2023-05-19T12:48:48.861Z,100802.27
2023-05-19T12:51:22.691Z,100803.36
2023-05-19T12:53:53.911Z,100807.17
2023-05-19T12:56:27.062Z,100804.52
2023-05-19T12:58:57.668Z,100802.36
2023-05-19T13:01:30.695Z,100805.44
2023-05-19T13:04:02.788Z,100810.48
2023-05-19T13:06:38.343Z,100803.95
2023-05-19T13:09:09.025Z,100803.79
2023-05-19T13:11:40.437Z,100801.14
2023-05-19T13:14:11.340Z,100797.75
2023-05-19T13:16:42.628Z,100798.61
2023-05-19T13:19:25.011Z,100805.50
2023-05-19T13:21:56.039Z,100804.60
2023-05-19T13:24:26.570Z,100803.49
2023-05-19T13:26:56.933Z,100795.69
2023-05-19T13:29:28.258Z,100790.98
2023-05-19T13:32:01.129Z,100800.79
2023-05-19T13:34:32.034Z,100798.77
2023-05-19T13:37:02.577Z,100797.67
2023-05-19T13:39:33.118Z,100797.45
2023-05-19T13:42:04.847Z,100799.31
2023-05-19T13:44:35.383Z,100802.27
2023-05-19T13:47:06.086Z,100795.76
2023-05-19T13:49:36.514Z,100792.68
2023-05-19T13:52:08.013Z,100793.20
2023-05-19T13:54:38.403Z,100801.56
2023-05-19T13:57:09.010Z,100802.33
2023-05-19T13:59:49.353Z,100806.77
2023-05-19T14:02:28.138Z,100807.71
2023-05-19T14:04:58.803Z,100803.70
2023-05-19T14:07:29.317Z,100802.89
2023-05-19T14:09:59.696Z,100799.61
2023-05-19T14:12:43.156Z,100798.20
2023-05-19T14:15:22.360Z,100793.65
2023-05-19T14:17:53.438Z,100792.66
2023-05-19T14:20:23.926Z,100793.11
2023-05-19T14:22:55.464Z,100785.33
2023-05-19T14:25:25.876Z,100782.13
2023-05-19T14:27:56.274Z,100782.10
2023-05-19T14:30:26.679Z,100782.66
2023-05-19T14:32:57.170Z,100784.28
2023-05-19T14:35:28.879Z,100784.39
2023-05-19T14:37:59.182Z,100777.67
2023-05-19T14:40:29.552Z,100774.30
2023-05-19T14:43:00.560Z,100772.74
2023-05-19T14:45:31.352Z,100767.46
2023-05-19T14:48:01.920Z,100769.75
2023-05-19T14:50:32.550Z,100767.13
2023-05-19T14:53:03.324Z,100760.45
2023-05-19T14:55:33.749Z,100764.08
2023-05-19T14:58:10.200Z,100762.27
2023-05-19T15:00:51.441Z,100763.52
2023-05-19T15:03:23.321Z,100763.28
2023-05-19T15:05:53.792Z,100761.17
2023-05-19T15:08:24.528Z,100759.05
2023-05-19T15:10:54.944Z,100761.31
2023-05-19T15:13:26.435Z,100756.70
2023-05-19T15:16:12.324Z,100758.05
2023-05-19T15:18:47.024Z,100757.19
2023-05-19T15:21:17.617Z,100758.66
2023-05-19T15:23:48.193Z,100760.06
2023-05-19T15:26:18.853Z,100759.68
2023-05-19T15:28:49.254Z,100755.79
2023-05-19T15:31:23.132Z,100753.14
2023-05-19T15:33:53.777Z,100749.81
2023-05-19T15:36:24.354Z,100748.42
2023-05-19T15:38:54.734Z,100749.39
2023-05-19T15:41:25.777Z,100749.39
2023-05-19T15:43:54.728Z,100746.52
2023-05-19T15:46:25.172Z,100748.00
2023-05-19T15:48:56.532Z,100746.63
2023-05-19T15:51:27.708Z,100745.55
2023-05-19T15:53:56.614Z,100747.39
2023-05-19T15:56:27.184Z,100746.06
2023-05-19T15:58:57.792Z,100745.58
2023-05-19T16:01:28.579Z,100743.52
2023-05-19T16:04:00.513Z,100739.98
2023-05-19T16:06:31.195Z,100731.35
2023-05-19T16:09:01.760Z,100732.95
2023-05-19T16:11:32.557Z,100730.48
2023-05-19T16:14:03.000Z,100728.53
2023-05-19T16:16:33.532Z,100727.95
2023-05-19T16:19:04.121Z,100728.35
2023-05-19T16:21:34.653Z,100728.56
2023-05-19T16:24:05.285Z,100724.09
2023-05-19T16:26:35.680Z,100720.15
2023-05-19T16:29:06.160Z,100714.35
2023-05-19T16:31:36.698Z,100715.25
2023-05-19T16:34:07.248Z,100711.70
2023-05-19T16:36:37.696Z,100713.46
2023-05-19T16:39:08.398Z,100706.64
2023-05-19T16:41:41.583Z,100698.71
2023-05-19T16:44:14.496Z,100700.74
2023-05-19T16:46:45.208Z,100697.70
2023-05-19T16:49:15.762Z,100698.21
2023-05-19T16:51:49.118Z,100695.06
2023-05-19T16:54:19.633Z,100691.45
2023-05-19T16:56:50.866Z,100686.33
2023-05-19T16:59:19.984Z,100683.98
2023-05-19T17:01:50.409Z,100679.84
2023-05-19T17:04:21.042Z,100678.46
2023-05-19T17:06:51.566Z,100679.68
2023-05-19T17:09:25.366Z,100679.71
2023-05-19T17:11:56.333Z,100677.91
2023-05-19T17:14:26.863Z,100677.91
2023-05-19T17:16:57.493Z,100677.02
2023-05-19T17:19:28.044Z,100673.26
2023-05-19T17:21:58.577Z,100671.54
2023-05-19T17:24:29.551Z,100671.55
2023-05-19T17:26:59.968Z,100673.45
2023-05-19T17:29:30.748Z,100675.08
2023-05-19T17:32:01.321Z,100674.04
2023-05-19T17:34:31.788Z,100676.52
2023-05-19T17:37:02.485Z,100677.70
2023-05-19T17:39:33.186Z,100680.65
2023-05-19T17:42:03.722Z,100677.84
2023-05-19T17:44:34.166Z,100677.65
2023-05-19T17:47:05.240Z,100681.37
2023-05-19T17:49:35.762Z,100684.17
2023-05-19T17:52:07.468Z,100680.48
2023-05-19T17:54:38.844Z,100682.77
2023-05-19T17:57:16.874Z,100681.33
2023-05-19T17:59:48.040Z,100683.67
2023-05-19T18:02:18.681Z,100680.56
2023-05-19T18:04:50.091Z,100681.45
2023-05-19T18:07:20.922Z,100681.71
2023-05-19T18:09:56.290Z,100679.27
2023-05-19T18:12:26.742Z,100682.70
2023-05-19T18:14:57.242Z,100680.21
2023-05-19T18:17:27.898Z,100685.05
2023-05-19T18:19:58.341Z,100680.72
2023-05-19T18:22:28.885Z,100683.04
2023-05-19T18:24:59.347Z,100683.90
2023-05-19T18:27:31.372Z,100683.95
2023-05-19T18:30:01.984Z,100678.48
2023-05-19T18:32:32.400Z,100676.44
2023-05-19T18:35:03.057Z,100678.38
2023-05-19T18:37:33.474Z,100675.86
2023-05-19T18:40:04.089Z,100681.21
2023-05-19T18:42:34.629Z,100677.88
2023-05-19T18:45:06.288Z,100671.91
2023-05-19T18:47:36.846Z,100670.07
2023-05-19T18:50:09.330Z,100672.29
2023-05-19T18:52:39.786Z,100673.61
2023-05-19T18:55:11.556Z,100677.23
2023-05-19T18:57:42.066Z,100677.20
2023-05-19T19:00:14.675Z,100675.40
2023-05-19T19:02:45.138Z,100671.59
2023-05-19T19:05:15.719Z,100674.81
2023-05-19T19:07:56.344Z,100682.16
2023-05-19T19:10:27.059Z,100684.84
2023-05-19T19:12:57.948Z,100689.10
2023-05-19T19:15:28.660Z,100693.59
2023-05-19T19:17:59.134Z,100693.00
2023-05-19T19:20:29.813Z,100696.55
2023-05-19T19:23:06.403Z,100692.13
2023-05-19T19:25:37.601Z,100691.56
2023-05-19T19:28:08.202Z,100691.77
2023-05-19T19:30:49.986Z,100692.56
2023-05-19T19:33:20.479Z,100695.04
2023-05-19T19:35:51.053Z,100699.80
2023-05-19T19:38:21.721Z,100701.91
2023-05-19T19:40:54.533Z,100704.10
2023-05-19T19:43:35.561Z,100701.65
2023-05-19T19:46:09.364Z,100703.86
2023-05-19T19:48:42.382Z,100702.52
2023-05-19T19:51:12.992Z,100706.92
2023-05-19T19:53:46.536Z,100711.33
2023-05-19T19:56:17.057Z,100712.66
2023-05-19T19:58:47.724Z,100714.12
2023-05-19T20:01:20.269Z,100716.89
2023-05-19T20:03:51.003Z,100719.23
2023-05-19T20:06:29.247Z,100719.35
2023-05-19T20:08:59.707Z,100720.90
2023-05-19T20:11:30.120Z,100722.00
2023-05-19T20:14:00.764Z,100720.07
2023-05-19T20:16:33.867Z,100720.04
2023-05-19T20:19:09.158Z,100719.48
2023-05-19T20:21:40.125Z,100720.98
2023-05-19T20:24:11.049Z,100717.48
2023-05-19T20:26:41.741Z,100718.93
2023-05-19T20:29:12.442Z,100722.09
2023-05-19T20:31:43.069Z,100719.58
2023-05-19T20:34:16.068Z,100721.63
2023-05-19T20:36:48.996Z,100713.19
2023-05-19T20:39:19.520Z,100716.21
2023-05-19T20:41:49.918Z,100715.33
2023-05-19T20:44:25.828Z,100715.42
2023-05-19T20:46:58.759Z,100712.86
2023-05-19T20:49:29.390Z,100716.80
2023-05-19T20:52:00.631Z,100716.48
2023-05-19T20:54:31.078Z,100718.77
2023-05-19T20:57:06.424Z,100719.48
2023-05-19T20:59:57.084Z,100720.20
2023-05-19T21:02:27.641Z,100719.64
2023-05-19T21:04:58.211Z,100714.73
2023-05-19T21:07:31.592Z,100713.85
2023-05-19T21:10:02.108Z,100707.39
2023-05-19T21:12:35.469Z,100707.03
2023-05-19T21:15:07.845Z,100709.39
2023-05-19T21:17:38.333Z,100715.77
2023-05-19T21:20:11.510Z,100715.23
2023-05-19T21:22:49.419Z,100715.33
2023-05-19T21:25:19.913Z,100712.80
2023-05-19T21:27:52.967Z,100714.70
2023-05-19T21:30:24.002Z,100712.99
2023-05-19T21:32:54.532Z,100717.83
2023-05-19T21:35:25.008Z,100719.57
2023-05-19T21:38:00.669Z,100718.64
2023-05-19T21:40:40.227Z,100720.03
2023-05-19T21:43:11.058Z,100720.33
2023-05-19T21:45:44.244Z,100720.64
2023-05-19T21:48:14.797Z,100718.85
2023-05-19T21:50:45.407Z,100718.25
2023-05-19T21:53:16.163Z,100717.95
2023-05-19T21:55:49.899Z,100717.81
2023-05-19T21:58:20.517Z,100714.94
2023-05-19T22:00:56.002Z,100718.93
2023-05-19T22:03:26.768Z,100719.23
2023-05-19T22:05:57.837Z,100718.61
2023-05-19T22:08:28.400Z,100714.95
2023-05-19T22:10:59.108Z,100720.85
2023-05-19T22:13:30.235Z,100720.35
2023-05-19T22:16:00.725Z,100713.30
2023-05-19T22:18:31.462Z,100714.73
2023-05-19T22:21:02.179Z,100714.54
2023-05-19T22:23:36.690Z,100709.42
2023-05-19T22:26:09.451Z,100707.66
2023-05-19T22:28:40.051Z,100707.39
2023-05-19T22:31:13.973Z,100708.16
2023-05-19T22:33:58.290Z,100710.96
2023-05-19T22:36:29.153Z,100710.56
2023-05-19T22:38:59.747Z,100712.27
2023-05-19T22:41:30.327Z,100709.34
2023-05-19T22:44:00.767Z,100705.21
2023-05-19T22:46:35.418Z,100708.13
2023-05-19T22:49:06.105Z,100709.21
2023-05-19T22:51:36.548Z,100705.75
2023-05-19T22:54:07.832Z,100700.36
2023-05-19T22:56:38.338Z,100699.09
2023-05-19T22:59:09.020Z,100700.66
2023-05-19T23:01:39.812Z,100698.55
2023-05-19T23:04:21.942Z,100699.09
2023-05-19T23:06:53.135Z,100702.33
2023-05-19T23:09:23.778Z,100702.22
2023-05-19T23:11:56.505Z,100699.30
2023-05-19T23:14:27.150Z,100700.77
2023-05-19T23:16:57.760Z,100699.48
2023-05-19T23:19:29.139Z,100699.63
2023-05-19T23:22:02.430Z,100695.37
2023-05-19T23:24:35.428Z,100694.64
2023-05-19T23:27:06.868Z,100695.75
2023-05-19T23:29:36.021Z,100692.22
2023-05-19T23:32:07.405Z,100683.95
2023-05-19T23:34:37.877Z,100680.19
2023-05-19T23:37:18.657Z,100682.61
2023-05-19T23:39:49.097Z,100678.77
2023-05-19T23:42:22.092Z,100679.44
2023-05-19T23:44:59.815Z,100679.89
2023-05-19T23:47:32.786Z,100673.05
2023-05-19T23:50:03.274Z,100673.92
2023-05-19T23:52:33.783Z,100669.90
2023-05-19T23:55:04.474Z,100665.22
2023-05-19T23:57:35.065Z,100663.41
